createdAt,value
2022-09-12T00:00:11.123Z,0.90
2022-09-12T00:02:46.332Z,0.80
2022-09-12T00:05:19.267Z,1.13
2022-09-12T00:07:51.618Z,0.80
2022-09-12T00:10:24.040Z,1.05
2022-09-12T00:12:56.395Z,1.98
2022-09-12T00:15:28.712Z,0.90
2022-09-12T00:18:01.078Z,1.02
2022-09-12T00:20:34.093Z,1.35
2022-09-12T00:23:06.358Z,1.70
2022-09-12T00:25:42.375Z,1.23
2022-09-12T00:28:16.762Z,1.35
2022-09-12T00:30:49.395Z,1.05
2022-09-12T00:33:21.679Z,0.80
2022-09-12T00:35:54.683Z,0.98
2022-09-12T00:38:26.952Z,1.15
2022-09-12T00:40:59.298Z,1.05
2022-09-12T00:43:38.071Z,1.45
2022-09-12T00:46:17.796Z,0.80
2022-09-12T00:48:56.554Z,1.05
2022-09-12T00:51:32.567Z,1.27
2022-09-12T00:54:10.313Z,1.13
2022-09-12T00:56:45.894Z,0.75
2022-09-12T00:59:21.572Z,0.57
2022-09-12T01:01:54.732Z,0.98
2022-09-12T01:04:28.591Z,0.98
2022-09-12T01:07:05.035Z,0.47
2022-09-12T01:09:39.571Z,0.90
2022-09-12T01:12:14.338Z,0.70
2022-09-12T01:14:46.655Z,0.80
2022-09-12T01:17:19.013Z,0.60
2022-09-12T01:20:30.426Z,0.47
2022-09-12T01:23:24.829Z,0.50
2022-09-12T01:26:13.306Z,0.80
2022-09-12T01:29:14.070Z,0.60
2022-09-12T01:31:57.054Z,0.63
2022-09-12T01:34:36.511Z,0.90
2022-09-12T01:37:16.714Z,0.65
2022-09-12T01:39:56.718Z,0.70
2022-09-12T01:42:34.439Z,0.93
2022-09-12T01:45:11.316Z,0.73
2022-09-12T01:47:47.722Z,0.70
2022-09-12T01:50:24.705Z,0.60
2022-09-12T01:53:01.979Z,0.98
2022-09-12T01:55:41.012Z,0.70
2022-09-12T01:58:19.499Z,0.73
2022-09-12T02:00:59.183Z,0.50
2022-09-12T02:06:09.959Z,0.52
2022-09-12T02:08:47.060Z,0.60
2022-09-12T02:11:20.183Z,0.65
2022-09-12T02:13:56.262Z,0.77
2022-09-12T02:16:33.599Z,1.05
2022-09-12T02:19:10.666Z,1.15
2022-09-12T02:21:48.080Z,1.15
2022-09-12T02:24:24.964Z,0.40
2022-09-12T02:27:00.967Z,0.57
2022-09-12T02:29:33.358Z,0.50
2022-09-12T02:32:12.391Z,0.50
2022-09-12T02:34:51.062Z,1.17
2022-09-12T02:37:42.042Z,0.30
2022-09-12T02:40:15.425Z,0.35
2022-09-12T02:42:47.718Z,0.40
2022-09-12T02:45:22.155Z,0.50
2022-09-12T02:48:00.130Z,0.28
2022-09-12T02:50:33.351Z,0.30
2022-09-12T02:53:07.218Z,0.90
2022-09-12T02:55:41.008Z,0.28
2022-09-12T02:58:18.113Z,0.90
2022-09-12T03:00:57.513Z,0.28
2022-09-12T03:03:52.286Z,0.73
2022-09-12T03:06:33.429Z,0.40
2022-09-12T03:09:12.490Z,1.08
2022-09-12T03:12:01.764Z,0.30
2022-09-12T03:15:02.128Z,0.50
2022-09-12T03:17:44.662Z,0.57
2022-09-12T03:20:26.867Z,0.50
2022-09-12T03:23:05.443Z,0.43
2022-09-12T03:25:43.845Z,0.45
2022-09-12T03:28:18.289Z,0.80
2022-09-12T03:30:52.718Z,0.57
2022-09-12T03:33:25.990Z,0.70
2022-09-12T03:35:58.395Z,0.70
2022-09-12T03:38:31.395Z,0.70
2022-09-12T03:41:04.167Z,0.43
2022-09-12T03:43:36.478Z,0.55
2022-09-12T03:46:08.826Z,0.60
2022-09-12T03:48:41.449Z,0.60
2022-09-12T03:51:13.805Z,0.40
2022-09-12T03:53:46.928Z,1.20
2022-09-12T03:56:20.215Z,0.63
2022-09-12T03:58:52.530Z,0.50
2022-09-12T04:01:24.920Z,0.80
2022-09-12T04:03:57.299Z,0.50
2022-09-12T04:06:30.474Z,0.80
2022-09-12T04:09:03.629Z,1.05
2022-09-12T04:11:36.113Z,0.90
2022-09-12T04:14:08.475Z,0.75
2022-09-12T04:16:40.867Z,1.23
2022-09-12T04:19:13.180Z,0.80
2022-09-12T04:21:45.514Z,0.80
2022-09-12T04:24:18.564Z,1.13
2022-09-12T04:26:50.908Z,1.27
2022-09-12T04:29:23.366Z,2.47
2022-09-12T04:31:55.651Z,2.40
2022-09-12T04:34:30.665Z,1.38
2022-09-12T04:37:03.167Z,2.28
2022-09-12T04:39:36.143Z,1.48
2022-09-12T04:42:08.498Z,1.52
2022-09-12T04:44:40.971Z,1.27
2022-09-12T04:47:13.258Z,1.05
2022-09-12T04:49:45.927Z,1.10
2022-09-12T04:52:18.208Z,1.00
2022-09-12T04:54:52.523Z,1.77
2022-09-12T04:57:25.288Z,1.42
2022-09-12T04:59:58.075Z,1.75
2022-09-12T05:02:30.396Z,3.17
2022-09-12T05:05:02.727Z,1.27
2022-09-12T05:07:35.649Z,2.08
2022-09-12T05:10:10.266Z,1.98
2022-09-12T05:12:42.623Z,1.52
2022-09-12T05:15:14.991Z,1.42
2022-09-12T05:17:47.304Z,1.48
2022-09-12T05:20:19.661Z,2.00
2022-09-12T05:22:52.032Z,2.50
2022-09-12T05:25:25.591Z,1.95
2022-09-12T05:27:57.918Z,2.22
2022-09-12T05:30:30.265Z,2.40
2022-09-12T05:33:02.519Z,2.15
2022-09-12T05:35:34.818Z,1.63
2022-09-12T05:38:07.577Z,1.95
2022-09-12T05:40:40.488Z,1.90
2022-09-12T05:43:13.158Z,1.90
2022-09-12T05:45:45.591Z,1.70
2022-09-12T05:48:17.879Z,2.25
2022-09-12T05:50:50.179Z,2.67
2022-09-12T05:53:22.566Z,1.88
2022-09-12T05:56:05.675Z,2.47
2022-09-12T05:58:40.455Z,1.92
2022-09-12T06:01:14.758Z,2.00
2022-09-12T06:03:48.999Z,1.58
2022-09-12T06:06:23.721Z,2.30
2022-09-12T06:08:58.970Z,2.17
2022-09-12T06:11:35.422Z,2.45
2022-09-12T06:14:09.168Z,2.38
2022-09-12T06:16:41.604Z,2.53
2022-09-12T06:19:16.282Z,2.25
2022-09-12T06:21:49.278Z,1.95
2022-09-12T06:24:21.629Z,1.27
2022-09-12T06:26:54.541Z,2.03
2022-09-12T06:29:26.860Z,1.98
2022-09-12T06:31:59.183Z,1.77
2022-09-12T06:34:31.602Z,1.58
2022-09-12T06:37:04.102Z,2.55
2022-09-12T06:39:37.709Z,2.35
2022-09-12T06:42:11.962Z,2.38
2022-09-12T06:44:44.261Z,2.17
2022-09-12T06:47:16.531Z,1.90
2022-09-12T06:49:50.247Z,1.63
2022-09-12T06:52:22.564Z,2.22
2022-09-12T06:54:54.858Z,2.10
2022-09-12T06:57:30.686Z,1.90
2022-09-12T07:00:04.571Z,1.95
2022-09-12T07:02:36.938Z,1.55
2022-09-12T07:05:10.414Z,1.80
2022-09-12T07:07:42.736Z,1.55
2022-09-12T07:10:19.002Z,1.85
2022-09-12T07:12:54.640Z,1.25
2022-09-12T07:15:26.959Z,1.63
2022-09-12T07:17:59.272Z,3.67
2022-09-12T07:20:32.490Z,1.90
2022-09-12T07:23:04.786Z,1.38
2022-09-12T07:25:37.106Z,2.20
2022-09-12T07:28:10.091Z,2.75
2022-09-12T07:30:42.401Z,2.55
2022-09-12T07:33:14.740Z,2.00
2022-09-12T07:35:47.477Z,2.28
2022-09-12T07:38:20.203Z,1.73
2022-09-12T07:40:52.854Z,2.25
2022-09-12T07:43:25.766Z,2.03
2022-09-12T07:45:58.100Z,1.90
2022-09-12T07:48:30.350Z,1.77
2022-09-12T07:51:05.124Z,2.05
2022-09-12T07:53:39.713Z,1.83
2022-09-12T07:56:13.065Z,1.50
2022-09-12T07:58:46.984Z,1.63
2022-09-12T08:01:22.462Z,1.23
2022-09-12T08:04:00.610Z,1.73
2022-09-12T08:06:35.256Z,1.60
2022-09-12T08:09:07.857Z,1.27
2022-09-12T08:11:40.236Z,1.55
2022-09-12T08:14:13.231Z,1.20
2022-09-12T08:16:45.519Z,1.60
2022-09-12T08:19:17.869Z,1.50
2022-09-12T08:21:50.175Z,1.40
2022-09-12T08:24:22.495Z,1.33
2022-09-12T08:26:54.863Z,1.40
2022-09-12T08:29:28.091Z,0.90
2022-09-12T08:32:00.435Z,1.75
2022-09-12T08:34:32.802Z,1.40
2022-09-12T08:37:05.175Z,1.42
2022-09-12T08:39:37.524Z,1.77
2022-09-12T08:42:15.840Z,1.67
2022-09-12T08:45:04.971Z,1.33
2022-09-12T08:47:40.015Z,1.63
2022-09-12T08:50:17.114Z,1.48
2022-09-12T08:52:57.800Z,1.60
2022-09-12T08:55:33.711Z,1.77
2022-09-12T08:58:13.285Z,1.42
2022-09-12T09:00:55.147Z,1.50
2022-09-12T09:03:55.838Z,1.35
2022-09-12T09:06:49.953Z,1.23
2022-09-12T09:09:38.929Z,1.70
2022-09-12T09:12:19.894Z,1.45
2022-09-12T09:15:14.223Z,1.52
2022-09-12T09:17:50.506Z,1.38
2022-09-12T09:20:30.571Z,1.70
2022-09-12T09:23:08.319Z,1.92
2022-09-12T09:25:48.616Z,1.10
2022-09-12T09:28:25.310Z,1.55
2022-09-12T09:30:58.148Z,1.38
2022-09-12T09:33:34.922Z,1.88
2022-09-12T09:36:16.597Z,1.38
2022-09-12T09:38:54.210Z,1.65
2022-09-12T09:41:40.262Z,2.05
2022-09-12T09:44:12.877Z,2.00
2022-09-12T09:46:45.216Z,1.13
2022-09-12T09:49:18.413Z,1.98
2022-09-12T09:51:51.175Z,1.13
2022-09-12T09:54:26.162Z,2.25
2022-09-12T09:56:58.552Z,1.90
2022-09-12T09:59:32.991Z,1.30
2022-09-12T10:02:24.172Z,1.70
2022-09-12T10:04:59.055Z,1.17
2022-09-12T10:07:31.650Z,1.25
2022-09-12T10:10:07.140Z,1.67
2022-09-12T10:12:39.583Z,1.15
2022-09-12T10:15:19.108Z,1.77
2022-09-12T10:20:32.649Z,1.73
2022-09-12T10:23:28.728Z,1.30
2022-09-12T10:26:04.463Z,1.48
2022-09-12T10:28:40.350Z,1.65
2022-09-12T10:31:16.518Z,1.70
2022-09-12T10:33:52.066Z,1.35
2022-09-12T10:36:25.825Z,1.50
2022-09-12T10:39:01.884Z,1.80
2022-09-12T10:41:40.279Z,1.73
2022-09-12T10:44:15.847Z,1.95
2022-09-12T10:46:48.192Z,1.58
2022-09-12T10:49:26.201Z,2.25
2022-09-12T10:52:17.319Z,2.10
2022-09-12T10:54:50.018Z,1.42
2022-09-12T10:57:48.655Z,2.15
2022-09-12T11:00:27.002Z,1.88
2022-09-12T11:03:09.250Z,1.88
2022-09-12T11:05:53.171Z,1.77
2022-09-12T11:09:02.317Z,1.88
2022-09-12T11:11:45.954Z,1.60
2022-09-12T11:14:30.982Z,2.28
2022-09-12T11:17:14.595Z,1.80
2022-09-12T11:20:03.379Z,1.83
2022-09-12T11:22:54.312Z,2.03
2022-09-12T11:25:34.380Z,2.55
2022-09-12T11:28:25.067Z,2.25
2022-09-12T11:31:17.748Z,2.80
2022-09-12T11:33:54.975Z,1.92
2022-09-12T11:36:41.627Z,2.33
2022-09-12T11:39:15.491Z,1.90
2022-09-12T11:41:55.113Z,2.15
2022-09-12T11:44:38.693Z,2.20
2022-09-12T11:47:13.288Z,1.65
2022-09-12T11:49:49.745Z,2.15
2022-09-12T11:52:23.758Z,2.00
2022-09-12T11:55:01.135Z,2.63
2022-09-12T11:57:41.599Z,2.25
2022-09-12T12:00:17.648Z,2.20
2022-09-12T12:02:59.720Z,1.90
2022-09-12T12:05:42.013Z,2.70
2022-09-12T12:08:14.480Z,1.60
2022-09-12T12:10:52.478Z,1.58
2022-09-12T12:13:29.987Z,1.77
2022-09-12T12:16:06.732Z,1.70
2022-09-12T12:18:40.603Z,1.33
2022-09-12T12:21:31.211Z,2.20
2022-09-12T12:24:14.682Z,1.70
2022-09-12T12:26:59.458Z,1.25
2022-09-12T12:29:44.133Z,1.77
2022-09-12T12:32:22.458Z,1.73
2022-09-12T12:35:37.167Z,2.55
2022-09-12T12:38:28.450Z,0.73
2022-09-12T12:41:33.807Z,0.90
2022-09-12T12:44:39.354Z,1.25
2022-09-12T12:47:19.893Z,1.20
2022-09-12T12:49:55.744Z,1.40
2022-09-12T12:52:31.211Z,1.10
2022-09-12T12:55:05.058Z,1.00
2022-09-12T12:57:49.490Z,1.00
2022-09-12T13:00:34.595Z,1.20
2022-09-12T13:03:22.031Z,1.80
2022-09-12T13:05:59.624Z,1.30
2022-09-12T13:08:35.218Z,1.48
2022-09-12T13:11:11.592Z,1.45
2022-09-12T13:13:50.043Z,1.30
2022-09-12T13:16:36.311Z,1.80
2022-09-12T13:19:18.176Z,1.48
2022-09-12T13:21:55.520Z,1.58
2022-09-12T13:24:28.186Z,1.50
2022-09-12T13:27:01.511Z,1.92
2022-09-12T13:29:33.850Z,1.40
2022-09-12T13:32:06.313Z,1.92
2022-09-12T13:34:55.803Z,2.42
2022-09-12T13:37:51.470Z,2.03
2022-09-12T13:40:33.385Z,1.42
2022-09-12T13:43:14.557Z,1.70
2022-09-12T13:45:47.803Z,1.40
2022-09-12T13:48:23.441Z,1.98
2022-09-12T13:51:00.659Z,1.90
2022-09-12T13:53:42.017Z,1.83
2022-09-12T13:56:16.976Z,1.40
2022-09-12T13:58:54.877Z,1.73
2022-09-12T14:01:38.558Z,2.20
2022-09-12T14:04:35.039Z,1.42
2022-09-12T14:07:15.889Z,2.08
2022-09-12T14:09:54.273Z,2.45
2022-09-12T14:12:30.318Z,1.90
2022-09-12T14:15:03.298Z,1.55
2022-09-12T14:17:38.886Z,1.92
2022-09-12T14:20:17.830Z,1.60
2022-09-12T14:22:51.678Z,1.88
2022-09-12T14:25:24.902Z,1.88
2022-09-12T14:27:58.365Z,1.60
2022-09-12T14:30:32.634Z,1.73
2022-09-12T14:33:17.760Z,1.63
2022-09-12T14:35:52.373Z,1.92
2022-09-12T14:38:34.202Z,1.67
2022-09-12T14:41:08.460Z,1.58
2022-09-12T14:43:45.415Z,1.63
2022-09-12T14:46:22.263Z,2.28
2022-09-12T14:48:59.214Z,1.23
2022-09-12T14:51:34.682Z,1.95
2022-09-12T14:54:36.583Z,1.40
2022-09-12T14:57:38.721Z,1.42
2022-09-12T15:00:21.581Z,1.60
2022-09-12T15:02:54.374Z,1.77
2022-09-12T15:05:27.557Z,1.90
2022-09-12T15:08:00.847Z,1.60
2022-09-12T15:10:37.034Z,1.83
2022-09-12T15:13:15.941Z,1.60
2022-09-12T15:15:50.934Z,1.80
2022-09-12T15:18:25.120Z,1.25
2022-09-12T15:21:01.829Z,1.13
2022-09-12T15:23:39.470Z,1.58
2022-09-12T15:26:14.018Z,1.58
2022-09-12T15:28:46.506Z,1.63
2022-09-12T15:31:24.127Z,1.83
2022-09-12T15:33:57.972Z,1.92
2022-09-12T15:36:30.361Z,1.50
2022-09-12T15:39:03.023Z,1.67
2022-09-12T15:41:37.944Z,1.77
2022-09-12T15:44:12.195Z,1.98
2022-09-12T15:46:44.688Z,1.35
2022-09-12T15:49:17.072Z,1.30
2022-09-12T15:51:49.418Z,1.50
2022-09-12T15:54:21.863Z,1.88
2022-09-12T15:56:54.911Z,1.75
2022-09-12T15:59:27.300Z,3.90
2022-09-12T16:01:59.741Z,2.20
2022-09-12T16:04:32.269Z,2.80
2022-09-12T16:07:04.641Z,1.60
2022-09-12T16:09:37.351Z,1.67
2022-09-12T16:12:10.362Z,2.00
2022-09-12T16:14:42.681Z,1.75
2022-09-12T16:17:15.584Z,1.42
2022-09-12T16:19:47.906Z,1.83
2022-09-12T16:22:20.224Z,2.10
2022-09-12T16:24:52.685Z,1.42
2022-09-12T16:27:25.742Z,1.52
2022-09-12T16:29:58.141Z,1.83
2022-09-12T16:32:30.783Z,2.78
2022-09-12T16:35:03.763Z,1.95
2022-09-12T16:37:36.177Z,2.25
2022-09-12T16:40:09.723Z,2.97
2022-09-12T16:42:43.895Z,2.15
2022-09-12T16:45:16.398Z,2.83
2022-09-12T16:47:48.701Z,3.30
2022-09-12T16:50:21.155Z,2.53
2022-09-12T16:52:53.440Z,1.75
2022-09-12T16:55:28.210Z,1.73
2022-09-12T16:58:01.203Z,2.25
2022-09-12T17:00:33.547Z,1.67
2022-09-12T17:03:05.916Z,2.55
2022-09-12T17:05:38.414Z,2.67
2022-09-12T17:08:10.783Z,2.85
2022-09-12T17:10:43.093Z,2.17
2022-09-12T17:13:16.141Z,1.35
2022-09-12T17:15:48.461Z,2.15
2022-09-12T17:18:20.931Z,3.05
2022-09-12T17:20:53.295Z,2.67
2022-09-12T17:23:25.969Z,3.10
2022-09-12T17:25:58.447Z,2.80
2022-09-12T17:28:31.510Z,2.70
2022-09-12T17:31:05.858Z,2.47
2022-09-12T17:33:38.983Z,2.78
2022-09-12T17:36:14.660Z,2.58
2022-09-12T17:38:47.477Z,2.60
2022-09-12T17:41:23.503Z,2.53
2022-09-12T17:43:58.111Z,2.30
2022-09-12T17:46:34.061Z,1.75
2022-09-12T17:49:08.591Z,1.45
2022-09-12T17:51:44.197Z,2.10
2022-09-12T17:54:20.112Z,2.22
2022-09-12T17:56:52.669Z,1.88
2022-09-12T17:59:25.699Z,2.40
2022-09-12T18:02:13.017Z,2.85
2022-09-12T18:04:46.456Z,2.13
2022-09-12T18:07:21.532Z,2.13
2022-09-12T18:09:54.527Z,2.28
2022-09-12T18:12:26.827Z,2.80
2022-09-12T18:14:59.864Z,3.55
2022-09-12T18:17:34.816Z,3.40
2022-09-12T18:20:08.788Z,3.55
2022-09-12T18:22:44.133Z,4.22
2022-09-12T18:25:16.592Z,2.58
2022-09-12T18:27:49.005Z,2.10
2022-09-12T18:30:22.848Z,4.22
2022-09-12T18:32:56.182Z,5.28
2022-09-12T18:35:28.549Z,4.25
2022-09-12T18:38:00.839Z,3.38
2022-09-12T18:40:33.295Z,2.75
2022-09-12T18:43:05.709Z,2.03
2022-09-12T18:45:39.210Z,2.30
2022-09-12T18:48:21.027Z,4.00
2022-09-12T18:50:54.578Z,2.45
2022-09-12T18:53:27.173Z,2.92
2022-09-12T18:56:04.559Z,2.38
2022-09-12T18:58:38.051Z,1.90
2022-09-12T19:01:13.130Z,2.15
2022-09-12T19:03:49.351Z,1.83
2022-09-12T19:06:25.308Z,2.03
2022-09-12T19:09:02.704Z,1.50
2022-09-12T19:11:40.028Z,1.90
2022-09-12T19:14:15.437Z,2.35
2022-09-12T19:16:50.085Z,1.70
2022-09-12T19:19:22.691Z,1.70
2022-09-12T19:21:55.233Z,1.73
2022-09-12T19:24:31.941Z,2.30
2022-09-12T19:27:05.408Z,2.92
2022-09-12T19:29:38.050Z,1.95
2022-09-12T19:32:12.520Z,1.77
2022-09-12T19:34:44.866Z,1.70
2022-09-12T19:37:17.880Z,1.50
2022-09-12T19:39:51.318Z,1.85
2022-09-12T19:42:23.876Z,1.70
2022-09-12T19:44:57.765Z,1.48
2022-09-12T19:47:30.830Z,2.55
2022-09-12T19:50:03.847Z,2.55
2022-09-12T19:52:36.207Z,1.98
2022-09-12T19:55:11.327Z,1.60
2022-09-12T19:57:43.680Z,1.90
2022-09-12T20:00:16.190Z,1.50
2022-09-12T20:02:52.844Z,1.67
2022-09-12T20:05:25.414Z,1.38
2022-09-12T20:07:59.860Z,1.25
2022-09-12T20:10:32.196Z,1.33
2022-09-12T20:13:05.156Z,1.90
2022-09-12T20:15:37.624Z,1.55
2022-09-12T20:18:10.709Z,1.92
2022-09-12T20:20:43.554Z,1.70
2022-09-12T20:23:15.988Z,1.60
2022-09-12T20:25:48.324Z,1.25
2022-09-12T20:28:20.667Z,1.48
2022-09-12T20:30:53.065Z,1.70
2022-09-12T20:33:26.078Z,1.80
2022-09-12T20:36:06.598Z,1.50
2022-09-12T20:38:39.462Z,1.77
2022-09-12T20:41:12.017Z,1.65
2022-09-12T20:43:44.450Z,1.23
2022-09-12T20:46:21.443Z,1.67
2022-09-12T20:48:55.708Z,1.23
2022-09-12T20:51:29.699Z,2.00
2022-09-12T20:54:05.222Z,1.88
2022-09-12T20:56:37.781Z,1.48
2022-09-12T20:59:11.896Z,2.33
2022-09-12T21:01:44.299Z,1.95
2022-09-12T21:04:18.339Z,1.55
2022-09-12T21:06:50.752Z,1.77
2022-09-12T21:09:23.023Z,1.42
2022-09-12T21:11:55.314Z,1.20
2022-09-12T21:14:27.551Z,1.65
2022-09-12T21:16:59.811Z,1.80
2022-09-12T21:19:32.868Z,1.67
2022-09-12T21:22:05.161Z,1.80
2022-09-12T21:24:37.481Z,1.83
2022-09-12T21:27:09.814Z,1.88
2022-09-12T21:29:42.106Z,2.00
2022-09-12T21:32:14.509Z,1.63
2022-09-12T21:34:47.503Z,1.85
2022-09-12T21:37:19.772Z,2.17
2022-09-12T21:39:52.178Z,1.83
2022-09-12T21:42:24.873Z,2.33
2022-09-12T21:44:57.198Z,2.08
2022-09-12T21:47:29.649Z,1.50
2022-09-12T21:50:02.614Z,1.98
2022-09-12T21:52:35.306Z,3.70
2022-09-12T21:55:09.214Z,4.22
2022-09-12T21:57:41.582Z,2.38
2022-09-12T22:00:15.154Z,3.10
2022-09-12T22:02:47.481Z,1.40
2022-09-12T22:05:23.971Z,1.25
2022-09-12T22:07:56.345Z,1.85
2022-09-12T22:10:28.638Z,2.60
2022-09-12T22:13:01.241Z,1.77
2022-09-12T22:15:40.669Z,1.92
2022-09-12T22:18:13.509Z,1.85
2022-09-12T22:20:46.449Z,1.55
2022-09-12T22:23:36.816Z,2.35
2022-09-12T22:26:09.226Z,1.80
2022-09-12T22:28:42.288Z,2.20
2022-09-12T22:31:15.694Z,1.80
2022-09-12T22:33:48.306Z,1.83
2022-09-12T22:36:21.341Z,1.80
2022-09-12T22:38:53.615Z,1.75
2022-09-12T22:41:25.992Z,1.65
2022-09-12T22:43:58.455Z,1.70
2022-09-12T22:46:30.875Z,1.52
2022-09-12T22:49:04.306Z,1.80
2022-09-12T22:51:37.312Z,1.13
2022-09-12T22:54:10.278Z,1.38
2022-09-12T22:56:42.652Z,1.92
2022-09-12T22:59:14.989Z,1.95
2022-09-12T23:01:47.390Z,1.58
2022-09-12T23:04:19.691Z,1.75
2022-09-12T23:06:52.734Z,1.40
2022-09-12T23:09:25.094Z,1.00
2022-09-12T23:11:57.410Z,1.80
2022-09-12T23:14:29.769Z,1.27
2022-09-12T23:17:02.141Z,1.23
2022-09-12T23:19:34.472Z,1.48
2022-09-12T23:22:07.420Z,1.20
2022-09-12T23:24:39.689Z,1.38
2022-09-12T23:27:11.915Z,1.83
2022-09-12T23:29:44.191Z,1.00
2022-09-12T23:32:16.920Z,1.48
2022-09-12T23:34:49.309Z,1.42
2022-09-12T23:37:22.278Z,1.98
2022-09-12T23:39:54.619Z,1.15
2022-09-12T23:42:26.894Z,1.13
2022-09-12T23:44:59.204Z,0.80
2022-09-12T23:47:31.578Z,1.23
2022-09-12T23:50:04.356Z,1.20
2022-09-12T23:52:37.346Z,1.20
2022-09-12T23:55:09.828Z,1.13
2022-09-12T23:57:42.122Z,1.17
